sensor_id;sensor_type;location;lat;lon;timestamp;temperature;humidity
25468;DHT22;13384;24.794;110.498;2023-03-26T00:00:58;12.80;99.90
25468;DHT22;13384;24.794;110.498;2023-03-26T00:03:34;12.80;99.90
25468;DHT22;13384;24.794;110.498;2023-03-26T00:06:12;12.90;99.90
25468;DHT22;13384;24.794;110.498;2023-03-26T00:08:46;12.90;99.90
25468;DHT22;13384;24.794;110.498;2023-03-26T00:11:21;12.90;99.90
25468;DHT22;13384;24.794;110.498;2023-03-26T00:13:54;12.90;99.90
25468;DHT22;13384;24.794;110.498;2023-03-26T00:16:30;12.90;99.90
25468;DHT22;13384;24.794;110.498;2023-03-26T00:19:03;12.90;99.90
25468;DHT22;13384;24.794;110.498;2023-03-26T00:21:35;12.90;99.90
25468;DHT22;13384;24.794;110.498;2023-03-26T00:24:10;12.90;99.90
25468;DHT22;13384;24.794;110.498;2023-03-26T00:26:47;12.90;99.90
25468;DHT22;13384;24.794;110.498;2023-03-26T00:29:25;12.90;99.90
25468;DHT22;13384;24.794;110.498;2023-03-26T00:31:58;13.00;99.90
25468;DHT22;13384;24.794;110.498;2023-03-26T00:34:51;13.00;99.90
25468;DHT22;13384;24.794;110.498;2023-03-26T00:37:24;13.00;99.90
25468;DHT22;13384;24.794;110.498;2023-03-26T00:39:57;13.10;99.90
25468;DHT22;13384;24.794;110.498;2023-03-26T00:42:40;13.10;99.90
25468;DHT22;13384;24.794;110.498;2023-03-26T00:45:12;13.10;99.90
25468;DHT22;13384;24.794;110.498;2023-03-26T00:47:44;13.00;99.90
25468;DHT22;13384;24.794;110.498;2023-03-26T00:50:16;12.90;99.90
25468;DHT22;13384;24.794;110.498;2023-03-26T00:52:50;12.70;99.90
25468;DHT22;13384;24.794;110.498;2023-03-26T00:55:26;12.60;99.90
25468;DHT22;13384;24.794;110.498;2023-03-26T00:58:01;12.60;99.90
25468;DHT22;13384;24.794;110.498;2023-03-26T01:00:35;12.70;99.90
25468;DHT22;13384;24.794;110.498;2023-03-26T01:03:09;12.80;99.90
25468;DHT22;13384;24.794;110.498;2023-03-26T01:06:12;13.00;99.90
25468;DHT22;13384;24.794;110.498;2023-03-26T01:08:49;13.00;99.90
25468;DHT22;13384;24.794;110.498;2023-03-26T01:11:30;13.00;99.90
25468;DHT22;13384;24.794;110.498;2023-03-26T01:14:17;13.10;99.90
25468;DHT22;13384;24.794;110.498;2023-03-26T01:17:00;13.20;99.90
25468;DHT22;13384;24.794;110.498;2023-03-26T01:19:56;13.20;99.90
25468;DHT22;13384;24.794;110.498;2023-03-26T01:22:41;13.20;99.90
25468;DHT22;13384;24.794;110.498;2023-03-26T01:25:16;13.30;99.90
25468;DHT22;13384;24.794;110.498;2023-03-26T01:27:55;13.30;99.90
25468;DHT22;13384;24.794;110.498;2023-03-26T01:30:45;13.20;99.90
25468;DHT22;13384;24.794;110.498;2023-03-26T01:33:35;13.20;99.90
25468;DHT22;13384;24.794;110.498;2023-03-26T01:36:20;13.20;99.90
25468;DHT22;13384;24.794;110.498;2023-03-26T01:38:54;13.30;99.90
25468;DHT22;13384;24.794;110.498;2023-03-26T01:41:39;13.20;99.90
25468;DHT22;13384;24.794;110.498;2023-03-26T01:47:10;13.20;99.90
25468;DHT22;13384;24.794;110.498;2023-03-26T01:49:44;13.30;99.90
25468;DHT22;13384;24.794;110.498;2023-03-26T01:52:21;13.30;99.90
25468;DHT22;13384;24.794;110.498;2023-03-26T01:54:56;13.40;99.90
25468;DHT22;13384;24.794;110.498;2023-03-26T01:58:02;13.40;99.90
25468;DHT22;13384;24.794;110.498;2023-03-26T02:00:54;13.30;99.90
25468;DHT22;13384;24.794;110.498;2023-03-26T02:03:37;13.40;99.90
25468;DHT22;13384;24.794;110.498;2023-03-26T02:06:26;13.50;99.90
25468;DHT22;13384;24.794;110.498;2023-03-26T02:09:10;13.60;99.90
25468;DHT22;13384;24.794;110.498;2023-03-26T02:12:17;13.50;99.90
25468;DHT22;13384;24.794;110.498;2023-03-26T02:15:11;13.50;99.90
25468;DHT22;13384;24.794;110.498;2023-03-26T02:17:44;13.50;99.90
25468;DHT22;13384;24.794;110.498;2023-03-26T02:20:37;13.40;99.90
25468;DHT22;13384;24.794;110.498;2023-03-26T02:23:09;13.50;99.90
25468;DHT22;13384;24.794;110.498;2023-03-26T02:25:42;13.50;99.90
25468;DHT22;13384;24.794;110.498;2023-03-26T02:28:14;13.40;99.90
25468;DHT22;13384;24.794;110.498;2023-03-26T02:31:10;13.40;99.90
25468;DHT22;13384;24.794;110.498;2023-03-26T02:33:44;13.50;99.90
25468;DHT22;13384;24.794;110.498;2023-03-26T02:36:22;13.60;99.90
25468;DHT22;13384;24.794;110.498;2023-03-26T02:39:02;13.70;99.90
25468;DHT22;13384;24.794;110.498;2023-03-26T02:41:40;13.80;99.90
25468;DHT22;13384;24.794;110.498;2023-03-26T02:44:13;13.90;99.90
25468;DHT22;13384;24.794;110.498;2023-03-26T02:47:00;13.90;99.90
25468;DHT22;13384;24.794;110.498;2023-03-26T02:49:54;13.90;99.90
25468;DHT22;13384;24.794;110.498;2023-03-26T02:52:37;14.00;99.90
25468;DHT22;13384;24.794;110.498;2023-03-26T02:55:11;14.00;99.90
25468;DHT22;13384;24.794;110.498;2023-03-26T02:57:47;14.00;99.90
25468;DHT22;13384;24.794;110.498;2023-03-26T03:00:29;13.80;99.90
25468;DHT22;13384;24.794;110.498;2023-03-26T03:03:35;13.80;99.90
25468;DHT22;13384;24.794;110.498;2023-03-26T03:06:28;13.80;99.90
25468;DHT22;13384;24.794;110.498;2023-03-26T03:09:01;13.90;99.90
25468;DHT22;13384;24.794;110.498;2023-03-26T03:11:52;13.80;99.90
25468;DHT22;13384;24.794;110.498;2023-03-26T03:14:27;13.60;99.90
25468;DHT22;13384;24.794;110.498;2023-03-26T03:17:02;13.50;99.90
25468;DHT22;13384;24.794;110.498;2023-03-26T03:19:36;13.50;99.90
25468;DHT22;13384;24.794;110.498;2023-03-26T03:22:09;13.50;99.90
25468;DHT22;13384;24.794;110.498;2023-03-26T03:24:42;13.60;99.90
25468;DHT22;13384;24.794;110.498;2023-03-26T03:27:14;13.70;99.90
25468;DHT22;13384;24.794;110.498;2023-03-26T03:29:52;13.70;99.90
25468;DHT22;13384;24.794;110.498;2023-03-26T03:32:44;13.80;99.90
25468;DHT22;13384;24.794;110.498;2023-03-26T03:35:38;13.90;99.90
25468;DHT22;13384;24.794;110.498;2023-03-26T03:38:30;14.10;99.90
25468;DHT22;13384;24.794;110.498;2023-03-26T03:41:02;14.10;99.90
25468;DHT22;13384;24.794;110.498;2023-03-26T03:43:37;14.20;99.90
25468;DHT22;13384;24.794;110.498;2023-03-26T03:46:25;14.10;99.90
25468;DHT22;13384;24.794;110.498;2023-03-26T03:48:59;14.00;99.90
25468;DHT22;13384;24.794;110.498;2023-03-26T03:51:53;14.00;99.90
25468;DHT22;13384;24.794;110.498;2023-03-26T03:54:48;14.10;99.90
25468;DHT22;13384;24.794;110.498;2023-03-26T03:57:38;14.20;99.90
25468;DHT22;13384;24.794;110.498;2023-03-26T04:00:17;13.90;99.90
25468;DHT22;13384;24.794;110.498;2023-03-26T04:03:30;13.70;99.90
25468;DHT22;13384;24.794;110.498;2023-03-26T04:06:15;13.60;99.90
25468;DHT22;13384;24.794;110.498;2023-03-26T04:08:53;13.90;99.90
25468;DHT22;13384;24.794;110.498;2023-03-26T04:11:25;14.00;99.90
25468;DHT22;13384;24.794;110.498;2023-03-26T04:14:25;14.10;99.90
25468;DHT22;13384;24.794;110.498;2023-03-26T04:17:14;14.20;99.90
25468;DHT22;13384;24.794;110.498;2023-03-26T04:19:47;14.30;99.90
25468;DHT22;13384;24.794;110.498;2023-03-26T04:22:28;14.30;99.90
25468;DHT22;13384;24.794;110.498;2023-03-26T04:25:08;14.10;99.90
25468;DHT22;13384;24.794;110.498;2023-03-26T04:27:45;14.10;99.90
25468;DHT22;13384;24.794;110.498;2023-03-26T04:30:40;14.20;99.90
25468;DHT22;13384;24.794;110.498;2023-03-26T04:33:36;14.20;99.90
25468;DHT22;13384;24.794;110.498;2023-03-26T04:36:18;14.30;99.90
25468;DHT22;13384;24.794;110.498;2023-03-26T04:39:15;14.30;99.90
25468;DHT22;13384;24.794;110.498;2023-03-26T04:42:09;14.40;99.90
25468;DHT22;13384;24.794;110.498;2023-03-26T04:45:17;14.20;99.90
25468;DHT22;13384;24.794;110.498;2023-03-26T04:47:59;14.30;99.90
25468;DHT22;13384;24.794;110.498;2023-03-26T04:50:32;14.10;99.90
25468;DHT22;13384;24.794;110.498;2023-03-26T04:53:06;14.20;99.90
25468;DHT22;13384;24.794;110.498;2023-03-26T04:56:25;14.30;99.90
25468;DHT22;13384;24.794;110.498;2023-03-26T04:59:27;14.40;99.90
25468;DHT22;13384;24.794;110.498;2023-03-26T05:02:26;14.20;99.90
25468;DHT22;13384;24.794;110.498;2023-03-26T05:05:21;14.20;99.90
25468;DHT22;13384;24.794;110.498;2023-03-26T05:08:13;14.30;99.90
25468;DHT22;13384;24.794;110.498;2023-03-26T05:10:47;14.20;99.90
25468;DHT22;13384;24.794;110.498;2023-03-26T05:13:40;14.30;99.90
25468;DHT22;13384;24.794;110.498;2023-03-26T05:16:33;14.30;99.90
25468;DHT22;13384;24.794;110.498;2023-03-26T05:19:33;14.30;99.90
25468;DHT22;13384;24.794;110.498;2023-03-26T05:22:13;14.20;99.90
25468;DHT22;13384;24.794;110.498;2023-03-26T05:25:25;14.30;99.90
25468;DHT22;13384;24.794;110.498;2023-03-26T05:28:03;14.40;99.90
25468;DHT22;13384;24.794;110.498;2023-03-26T05:30:54;14.30;99.90
25468;DHT22;13384;24.794;110.498;2023-03-26T05:33:29;14.30;99.90
25468;DHT22;13384;24.794;110.498;2023-03-26T05:36:15;14.40;99.90
25468;DHT22;13384;24.794;110.498;2023-03-26T05:39:13;14.40;99.90
25468;DHT22;13384;24.794;110.498;2023-03-26T05:41:54;14.30;99.90
25468;DHT22;13384;24.794;110.498;2023-03-26T05:44:37;14.30;99.90
25468;DHT22;13384;24.794;110.498;2023-03-26T05:47:18;14.40;99.90
25468;DHT22;13384;24.794;110.498;2023-03-26T05:49:51;14.50;99.90
25468;DHT22;13384;24.794;110.498;2023-03-26T05:52:45;14.40;99.90
25468;DHT22;13384;24.794;110.498;2023-03-26T05:55:36;14.40;99.90
25468;DHT22;13384;24.794;110.498;2023-03-26T05:58:29;14.40;99.90
25468;DHT22;13384;24.794;110.498;2023-03-26T06:01:19;14.40;99.90
25468;DHT22;13384;24.794;110.498;2023-03-26T06:04:13;14.40;99.90
25468;DHT22;13384;24.794;110.498;2023-03-26T06:07:31;14.50;99.90
25468;DHT22;13384;24.794;110.498;2023-03-26T06:10:21;14.50;99.90
25468;DHT22;13384;24.794;110.498;2023-03-26T06:13:14;14.50;99.90
25468;DHT22;13384;24.794;110.498;2023-03-26T06:15:51;14.50;99.90
25468;DHT22;13384;24.794;110.498;2023-03-26T06:18:35;14.40;99.90
25468;DHT22;13384;24.794;110.498;2023-03-26T06:21:27;14.40;99.90
25468;DHT22;13384;24.794;110.498;2023-03-26T06:24:10;14.30;99.90
25468;DHT22;13384;24.794;110.498;2023-03-26T06:27:04;14.50;99.90
25468;DHT22;13384;24.794;110.498;2023-03-26T06:29:52;14.60;99.90
25468;DHT22;13384;24.794;110.498;2023-03-26T06:32:44;14.60;99.90
25468;DHT22;13384;24.794;110.498;2023-03-26T06:35:45;14.70;99.90
25468;DHT22;13384;24.794;110.498;2023-03-26T06:38:19;14.60;99.90
25468;DHT22;13384;24.794;110.498;2023-03-26T06:41:12;14.60;99.90
25468;DHT22;13384;24.794;110.498;2023-03-26T06:44:19;14.60;99.90
25468;DHT22;13384;24.794;110.498;2023-03-26T06:47:13;14.70;99.90
25468;DHT22;13384;24.794;110.498;2023-03-26T06:50:11;14.70;99.90
25468;DHT22;13384;24.794;110.498;2023-03-26T06:53:14;14.70;99.90
25468;DHT22;13384;24.794;110.498;2023-03-26T06:56:29;14.80;99.90
25468;DHT22;13384;24.794;110.498;2023-03-26T06:59:52;14.80;99.90
25468;DHT22;13384;24.794;110.498;2023-03-26T07:02:44;14.80;99.90
25468;DHT22;13384;24.794;110.498;2023-03-26T07:05:53;14.80;99.90
25468;DHT22;13384;24.794;110.498;2023-03-26T07:08:43;14.80;99.90
25468;DHT22;13384;24.794;110.498;2023-03-26T07:11:33;14.70;99.90
25468;DHT22;13384;24.794;110.498;2023-03-26T07:14:28;14.80;99.90
25468;DHT22;13384;24.794;110.498;2023-03-26T07:17:31;14.70;99.90
25468;DHT22;13384;24.794;110.498;2023-03-26T07:20:15;14.70;99.90
25468;DHT22;13384;24.794;110.498;2023-03-26T07:22:50;14.70;99.90
25468;DHT22;13384;24.794;110.498;2023-03-26T07:25:37;14.60;99.90
25468;DHT22;13384;24.794;110.498;2023-03-26T07:28:36;14.50;99.90
25468;DHT22;13384;24.794;110.498;2023-03-26T07:35:09;14.40;99.90
25468;DHT22;13384;24.794;110.498;2023-03-26T07:41:31;14.40;99.90
25468;DHT22;13384;24.794;110.498;2023-03-26T07:44:34;14.40;99.90
25468;DHT22;13384;24.794;110.498;2023-03-26T07:48:18;14.40;99.90
25468;DHT22;13384;24.794;110.498;2023-03-26T07:51:25;14.40;99.90
25468;DHT22;13384;24.794;110.498;2023-03-26T07:54:21;14.50;99.90
25468;DHT22;13384;24.794;110.498;2023-03-26T08:08:26;14.60;99.90
25468;DHT22;13384;24.794;110.498;2023-03-26T08:14:44;14.50;99.90
25468;DHT22;13384;24.794;110.498;2023-03-26T08:20:38;14.50;99.90
25468;DHT22;13384;24.794;110.498;2023-03-26T08:27:15;14.60;99.90
25468;DHT22;13384;24.794;110.498;2023-03-26T08:30:21;14.50;99.90
25468;DHT22;13384;24.794;110.498;2023-03-26T08:33:16;14.50;99.90
25468;DHT22;13384;24.794;110.498;2023-03-26T08:36:10;14.50;99.90
25468;DHT22;13384;24.794;110.498;2023-03-26T08:38:44;14.40;99.90
25468;DHT22;13384;24.794;110.498;2023-03-26T08:51:36;14.50;99.90
25468;DHT22;13384;24.794;110.498;2023-03-26T09:00:39;14.40;99.90
25468;DHT22;13384;24.794;110.498;2023-03-26T09:03:55;14.40;99.90
25468;DHT22;13384;24.794;110.498;2023-03-26T09:07:00;14.40;99.90
25468;DHT22;13384;24.794;110.498;2023-03-26T09:16:25;14.40;99.90
25468;DHT22;13384;24.794;110.498;2023-03-26T09:36:54;14.10;99.90
25468;DHT22;13384;24.794;110.498;2023-03-26T09:54:44;14.10;99.90
25468;DHT22;13384;24.794;110.498;2023-03-26T10:06:11;14.10;99.90
25468;DHT22;13384;24.794;110.498;2023-03-26T10:12:38;14.00;99.90
25468;DHT22;13384;24.794;110.498;2023-03-26T10:22:14;13.90;99.90
25468;DHT22;13384;24.794;110.498;2023-03-26T10:28:31;14.00;99.90
25468;DHT22;13384;24.794;110.498;2023-03-26T10:35:01;14.00;99.90
25468;DHT22;13384;24.794;110.498;2023-03-26T10:37:37;13.70;99.90
25468;DHT22;13384;24.794;110.498;2023-03-26T10:43:39;13.80;99.90
25468;DHT22;13384;24.794;110.498;2023-03-26T10:52:36;13.70;99.90
25468;DHT22;13384;24.794;110.498;2023-03-26T10:55:20;13.60;99.90
25468;DHT22;13384;24.794;110.498;2023-03-26T11:03:52;13.40;99.90
25468;DHT22;13384;24.794;110.498;2023-03-26T11:06:45;13.30;99.90
25468;DHT22;13384;24.794;110.498;2023-03-26T11:27:08;13.30;99.90
25468;DHT22;13384;24.794;110.498;2023-03-26T11:30:01;13.40;99.90
25468;DHT22;13384;24.794;110.498;2023-03-26T11:32:46;13.20;99.90
25468;DHT22;13384;24.794;110.498;2023-03-26T11:35:26;13.20;99.90
25468;DHT22;13384;24.794;110.498;2023-03-26T11:41:31;13.20;99.90
25468;DHT22;13384;24.794;110.498;2023-03-26T11:44:53;13.20;99.90
25468;DHT22;13384;24.794;110.498;2023-03-26T11:47:45;13.10;99.90
25468;DHT22;13384;24.794;110.498;2023-03-26T11:50:28;13.10;99.90
25468;DHT22;13384;24.794;110.498;2023-03-26T11:53:26;13.20;99.90
25468;DHT22;13384;24.794;110.498;2023-03-26T11:56:25;13.20;99.90
25468;DHT22;13384;24.794;110.498;2023-03-26T12:02:37;13.10;99.90
25468;DHT22;13384;24.794;110.498;2023-03-26T12:05:53;13.00;99.90
25468;DHT22;13384;24.794;110.498;2023-03-26T12:08:37;12.90;99.90
25468;DHT22;13384;24.794;110.498;2023-03-26T12:11:27;12.80;99.90
25468;DHT22;13384;24.794;110.498;2023-03-26T12:14:17;12.90;99.90
25468;DHT22;13384;24.794;110.498;2023-03-26T12:17:30;12.90;99.90
25468;DHT22;13384;24.794;110.498;2023-03-26T12:22:58;12.80;99.90
25468;DHT22;13384;24.794;110.498;2023-03-26T12:26:04;12.80;99.90
25468;DHT22;13384;24.794;110.498;2023-03-26T12:28:47;12.80;99.90
25468;DHT22;13384;24.794;110.498;2023-03-26T12:31:20;12.90;99.90
25468;DHT22;13384;24.794;110.498;2023-03-26T12:34:18;12.80;99.90
25468;DHT22;13384;24.794;110.498;2023-03-26T12:36:56;12.70;99.90
25468;DHT22;13384;24.794;110.498;2023-03-26T12:40:25;12.80;99.90
25468;DHT22;13384;24.794;110.498;2023-03-26T12:43:28;13.00;99.90
25468;DHT22;13384;24.794;110.498;2023-03-26T12:46:34;13.00;99.90
25468;DHT22;13384;24.794;110.498;2023-03-26T12:49:40;12.90;99.90
25468;DHT22;13384;24.794;110.498;2023-03-26T12:59:10;12.90;99.90
25468;DHT22;13384;24.794;110.498;2023-03-26T13:02:10;13.00;99.90
25468;DHT22;13384;24.794;110.498;2023-03-26T13:14:48;13.00;99.90
25468;DHT22;13384;24.794;110.498;2023-03-26T13:23:54;13.00;99.90
25468;DHT22;13384;24.794;110.498;2023-03-26T13:33:33;12.80;99.90
25468;DHT22;13384;24.794;110.498;2023-03-26T13:36:35;12.80;99.90
25468;DHT22;13384;24.794;110.498;2023-03-26T13:43:23;12.90;99.90
25468;DHT22;13384;24.794;110.498;2023-03-26T13:49:22;12.90;99.90
25468;DHT22;13384;24.794;110.498;2023-03-26T13:54:56;13.00;99.90
25468;DHT22;13384;24.794;110.498;2023-03-26T13:57:45;12.90;99.90
25468;DHT22;13384;24.794;110.498;2023-03-26T14:04:26;13.00;99.90
25468;DHT22;13384;24.794;110.498;2023-03-26T14:08:02;12.70;99.90
25468;DHT22;13384;24.794;110.498;2023-03-26T14:11:05;12.60;99.90
25468;DHT22;13384;24.794;110.498;2023-03-26T14:13:50;12.70;99.90
25468;DHT22;13384;24.794;110.498;2023-03-26T14:17:02;12.80;99.90
25468;DHT22;13384;24.794;110.498;2023-03-26T14:23:20;12.50;99.90
25468;DHT22;13384;24.794;110.498;2023-03-26T14:40:01;12.20;99.90
25468;DHT22;13384;24.794;110.498;2023-03-26T14:49:15;12.40;99.90
25468;DHT22;13384;24.794;110.498;2023-03-26T15:05:58;12.60;99.90
25468;DHT22;13384;24.794;110.498;2023-03-26T15:18:40;12.40;99.90
25468;DHT22;13384;24.794;110.498;2023-03-26T15:49:40;12.30;99.90
25468;DHT22;13384;24.794;110.498;2023-03-26T15:52:27;12.40;99.90
25468;DHT22;13384;24.794;110.498;2023-03-26T16:01:36;12.20;99.90
25468;DHT22;13384;24.794;110.498;2023-03-26T16:17:17;12.60;99.90
25468;DHT22;13384;24.794;110.498;2023-03-26T16:20:28;12.60;99.90
25468;DHT22;13384;24.794;110.498;2023-03-26T16:23:05;12.40;99.90
25468;DHT22;13384;24.794;110.498;2023-03-26T16:29:30;12.30;99.90
25468;DHT22;13384;24.794;110.498;2023-03-26T16:32:26;12.50;99.90
25468;DHT22;13384;24.794;110.498;2023-03-26T16:37:49;12.40;99.90
25468;DHT22;13384;24.794;110.498;2023-03-26T16:40:33;12.40;99.90
25468;DHT22;13384;24.794;110.498;2023-03-26T16:49:12;12.10;99.90
25468;DHT22;13384;24.794;110.498;2023-03-26T16:57:35;12.40;99.90
25468;DHT22;13384;24.794;110.498;2023-03-26T17:00:28;12.40;99.90
25468;DHT22;13384;24.794;110.498;2023-03-26T17:21:40;12.20;99.90
25468;DHT22;13384;24.794;110.498;2023-03-26T17:24:37;12.10;99.90
25468;DHT22;13384;24.794;110.498;2023-03-26T17:27:50;12.10;99.90
25468;DHT22;13384;24.794;110.498;2023-03-26T17:33:36;12.10;99.90
25468;DHT22;13384;24.794;110.498;2023-03-26T17:39:20;12.20;99.90
25468;DHT22;13384;24.794;110.498;2023-03-26T17:47:55;12.30;99.90
25468;DHT22;13384;24.794;110.498;2023-03-26T17:50:33;12.40;99.90
25468;DHT22;13384;24.794;110.498;2023-03-26T17:53:27;12.40;99.90
25468;DHT22;13384;24.794;110.498;2023-03-26T17:56:15;12.40;99.90
25468;DHT22;13384;24.794;110.498;2023-03-26T17:59:19;12.50;99.90
25468;DHT22;13384;24.794;110.498;2023-03-26T18:01:59;12.40;99.90
25468;DHT22;13384;24.794;110.498;2023-03-26T18:04:38;12.50;99.90
25468;DHT22;13384;24.794;110.498;2023-03-26T18:15:46;12.00;99.90
25468;DHT22;13384;24.794;110.498;2023-03-26T18:18:52;12.00;99.90
25468;DHT22;13384;24.794;110.498;2023-03-26T18:21:36;11.90;99.90
25468;DHT22;13384;24.794;110.498;2023-03-26T18:24:22;12.10;99.90
25468;DHT22;13384;24.794;110.498;2023-03-26T18:26:57;12.10;99.90
25468;DHT22;13384;24.794;110.498;2023-03-26T18:29:33;12.10;99.90
25468;DHT22;13384;24.794;110.498;2023-03-26T18:32:22;12.30;99.90
25468;DHT22;13384;24.794;110.498;2023-03-26T18:35:00;12.20;99.90
25468;DHT22;13384;24.794;110.498;2023-03-26T18:37:34;12.30;99.90
25468;DHT22;13384;24.794;110.498;2023-03-26T18:40:13;12.30;99.90
25468;DHT22;13384;24.794;110.498;2023-03-26T18:42:57;12.10;99.90
25468;DHT22;13384;24.794;110.498;2023-03-26T18:45:40;12.30;99.90
25468;DHT22;13384;24.794;110.498;2023-03-26T18:48:21;12.20;99.90
25468;DHT22;13384;24.794;110.498;2023-03-26T18:51:00;12.20;99.90
25468;DHT22;13384;24.794;110.498;2023-03-26T18:53:51;12.20;99.90
25468;DHT22;13384;24.794;110.498;2023-03-26T18:56:41;12.20;99.90
25468;DHT22;13384;24.794;110.498;2023-03-26T18:59:29;12.10;99.90
25468;DHT22;13384;24.794;110.498;2023-03-26T19:02:13;12.20;99.90
25468;DHT22;13384;24.794;110.498;2023-03-26T19:04:48;12.40;99.90
25468;DHT22;13384;24.794;110.498;2023-03-26T19:07:26;12.40;99.90
25468;DHT22;13384;24.794;110.498;2023-03-26T19:09:59;12.40;99.90
25468;DHT22;13384;24.794;110.498;2023-03-26T19:12:31;12.40;99.90
25468;DHT22;13384;24.794;110.498;2023-03-26T19:15:15;12.20;99.90
25468;DHT22;13384;24.794;110.498;2023-03-26T19:18:01;12.00;99.90
25468;DHT22;13384;24.794;110.498;2023-03-26T19:20:53;12.10;99.90
25468;DHT22;13384;24.794;110.498;2023-03-26T19:23:36;12.20;99.90
25468;DHT22;13384;24.794;110.498;2023-03-26T19:26:09;12.10;99.90
25468;DHT22;13384;24.794;110.498;2023-03-26T19:28:50;12.10;99.90
25468;DHT22;13384;24.794;110.498;2023-03-26T19:31:32;12.20;99.90
25468;DHT22;13384;24.794;110.498;2023-03-26T19:34:24;12.20;99.90
25468;DHT22;13384;24.794;110.498;2023-03-26T19:37:01;12.10;99.90
25468;DHT22;13384;24.794;110.498;2023-03-26T19:39:47;12.00;99.90
25468;DHT22;13384;24.794;110.498;2023-03-26T19:42:31;12.00;99.90
25468;DHT22;13384;24.794;110.498;2023-03-26T19:45:20;12.00;99.90
25468;DHT22;13384;24.794;110.498;2023-03-26T19:47:53;11.90;99.90
25468;DHT22;13384;24.794;110.498;2023-03-26T19:51:03;11.90;99.90
25468;DHT22;13384;24.794;110.498;2023-03-26T19:53:37;12.00;99.90
25468;DHT22;13384;24.794;110.498;2023-03-26T19:56:15;12.10;99.90
25468;DHT22;13384;24.794;110.498;2023-03-26T19:58:50;12.10;99.90
25468;DHT22;13384;24.794;110.498;2023-03-26T20:01:27;12.10;99.90
25468;DHT22;13384;24.794;110.498;2023-03-26T20:04:04;12.00;99.90
25468;DHT22;13384;24.794;110.498;2023-03-26T20:06:37;12.00;99.90
25468;DHT22;13384;24.794;110.498;2023-03-26T20:09:12;12.10;99.90
25468;DHT22;13384;24.794;110.498;2023-03-26T20:11:44;12.00;99.90
25468;DHT22;13384;24.794;110.498;2023-03-26T20:14:18;12.00;99.90
25468;DHT22;13384;24.794;110.498;2023-03-26T20:16:55;12.10;99.90
25468;DHT22;13384;24.794;110.498;2023-03-26T20:19:27;12.10;99.90
25468;DHT22;13384;24.794;110.498;2023-03-26T20:22:00;12.20;99.90
25468;DHT22;13384;24.794;110.498;2023-03-26T20:24:32;12.00;99.90
25468;DHT22;13384;24.794;110.498;2023-03-26T20:27:05;11.90;99.90
25468;DHT22;13384;24.794;110.498;2023-03-26T20:29:36;12.00;99.90
25468;DHT22;13384;24.794;110.498;2023-03-26T20:32:20;12.00;99.90
25468;DHT22;13384;24.794;110.498;2023-03-26T20:34:55;12.10;99.90
25468;DHT22;13384;24.794;110.498;2023-03-26T20:37:27;12.10;99.90
25468;DHT22;13384;24.794;110.498;2023-03-26T20:39:59;12.10;99.90
25468;DHT22;13384;24.794;110.498;2023-03-26T20:42:30;11.90;99.90
25468;DHT22;13384;24.794;110.498;2023-03-26T20:45:20;12.00;99.90
25468;DHT22;13384;24.794;110.498;2023-03-26T20:47:52;12.00;99.90
25468;DHT22;13384;24.794;110.498;2023-03-26T20:50:24;11.90;99.90
25468;DHT22;13384;24.794;110.498;2023-03-26T20:52:57;11.70;99.90
25468;DHT22;13384;24.794;110.498;2023-03-26T20:55:30;11.70;99.90
25468;DHT22;13384;24.794;110.498;2023-03-26T20:58:02;11.80;99.90
25468;DHT22;13384;24.794;110.498;2023-03-26T21:00:33;11.90;99.90
25468;DHT22;13384;24.794;110.498;2023-03-26T21:03:08;12.00;99.90
25468;DHT22;13384;24.794;110.498;2023-03-26T21:05:41;12.00;99.90
25468;DHT22;13384;24.794;110.498;2023-03-26T21:08:18;12.00;99.90
25468;DHT22;13384;24.794;110.498;2023-03-26T21:10:51;11.90;99.90
25468;DHT22;13384;24.794;110.498;2023-03-26T21:13:56;11.90;99.90
25468;DHT22;13384;24.794;110.498;2023-03-26T21:16:28;11.90;99.90
25468;DHT22;13384;24.794;110.498;2023-03-26T21:19:01;12.00;99.90
25468;DHT22;13384;24.794;110.498;2023-03-26T21:21:56;12.10;99.90
25468;DHT22;13384;24.794;110.498;2023-03-26T21:25:03;12.10;99.90
25468;DHT22;13384;24.794;110.498;2023-03-26T21:30:30;12.10;99.90
25468;DHT22;13384;24.794;110.498;2023-03-26T21:33:02;11.90;99.90
25468;DHT22;13384;24.794;110.498;2023-03-26T21:35:35;11.90;99.90
25468;DHT22;13384;24.794;110.498;2023-03-26T21:38:09;11.90;99.90
25468;DHT22;13384;24.794;110.498;2023-03-26T21:40:41;12.10;99.90
25468;DHT22;13384;24.794;110.498;2023-03-26T21:43:26;12.20;99.90
25468;DHT22;13384;24.794;110.498;2023-03-26T21:46:00;12.10;99.90
25468;DHT22;13384;24.794;110.498;2023-03-26T21:48:33;12.00;99.90
25468;DHT22;13384;24.794;110.498;2023-03-26T21:51:06;12.10;99.90
25468;DHT22;13384;24.794;110.498;2023-03-26T21:53:38;12.10;99.90
25468;DHT22;13384;24.794;110.498;2023-03-26T21:56:21;12.10;99.90
25468;DHT22;13384;24.794;110.498;2023-03-26T21:59:38;12.10;99.90
25468;DHT22;13384;24.794;110.498;2023-03-26T22:05:15;12.00;99.90
25468;DHT22;13384;24.794;110.498;2023-03-26T22:08:00;12.10;99.90
25468;DHT22;13384;24.794;110.498;2023-03-26T22:10:32;12.20;99.90
25468;DHT22;13384;24.794;110.498;2023-03-26T22:13:04;12.30;99.90
25468;DHT22;13384;24.794;110.498;2023-03-26T22:15:37;12.30;99.90
25468;DHT22;13384;24.794;110.498;2023-03-26T22:18:09;12.20;99.90
25468;DHT22;13384;24.794;110.498;2023-03-26T22:20:42;12.30;99.90
25468;DHT22;13384;24.794;110.498;2023-03-26T22:23:16;12.30;99.90
25468;DHT22;13384;24.794;110.498;2023-03-26T22:25:47;12.20;99.90
25468;DHT22;13384;24.794;110.498;2023-03-26T22:28:20;12.20;99.90
25468;DHT22;13384;24.794;110.498;2023-03-26T22:30:52;12.20;99.90
25468;DHT22;13384;24.794;110.498;2023-03-26T22:33:25;12.20;99.90
25468;DHT22;13384;24.794;110.498;2023-03-26T22:35:57;12.20;99.90
25468;DHT22;13384;24.794;110.498;2023-03-26T22:38:29;12.20;99.90
25468;DHT22;13384;24.794;110.498;2023-03-26T22:41:03;12.20;99.90
25468;DHT22;13384;24.794;110.498;2023-03-26T22:43:35;12.30;99.90
25468;DHT22;13384;24.794;110.498;2023-03-26T22:46:06;12.30;99.90
25468;DHT22;13384;24.794;110.498;2023-03-26T22:48:39;12.30;99.90
25468;DHT22;13384;24.794;110.498;2023-03-26T22:51:10;12.30;99.90